Time;durP1;ratioP1;P1;durP2;ratioP2;P2;SDS_P1;SDS_P2;PMS_P1;PMS_P2;Temp;Humidity;BMP_temperature;BMP_pressure;BME280_temperature;BME280_humidity;BME280_pressure;Samples;Min_cycle;Max_cycle;Signal;HPM_P1;HPM_P2
2022/03/27 00:00:00;;;;;;;;;;;;;;;16.57;28.33;100453.50;4488476;31;34041;-63
2022/03/27 00:02:28;;;;;;;;;;;;;;;16.41;28.56;100448.59;4487214;31;35658;-63
2022/03/27 00:04:55;;;;;;;;;;;;;;;16.35;28.72;100452.69;4484516;31;33502;-63
2022/03/27 00:07:23;;;;;;;;;;;;;;;15.86;29.62;100448.84;4483269;31;34918;-63
2022/03/27 00:09:51;;;;;;;;;;;;;;;16.19;29.31;100450.47;4495392;31;35462;-63
2022/03/27 00:12:19;;;;;;;;;;;;;;;16.30;29.36;100444.09;4495709;31;34579;-63
2022/03/27 00:14:47;;;;;;;;;;;;;;;16.54;28.67;100444.66;4483114;31;33463;-63
2022/03/27 00:17:15;;;;;;;;;;;;;;;16.51;28.93;100444.94;4484732;31;34016;-63
2022/03/27 00:19:42;;;;;;;;;;;;;;;16.56;28.83;100447.22;4489986;31;35320;-62
2022/03/27 00:22:10;;;;;;;;;;;;;;;16.27;29.43;100455.19;4483471;31;34323;-63
2022/03/27 00:24:38;;;;;;;;;;;;;;;16.60;28.78;100454.06;4485463;31;33650;-63
2022/03/27 00:27:06;;;;;;;;;;;;;;;16.68;28.76;100451.53;4490848;31;33855;-63
2022/03/27 00:29:34;;;;;;;;;;;;;;;16.43;29.23;100452.84;4489800;31;35564;-63
2022/03/27 00:32:03;;;;;;;;;;;;;;;16.71;28.72;100453.97;4492583;31;35069;-62
2022/03/27 00:34:32;;;;;;;;;;;;;;;16.93;28.30;100455.62;4497676;31;34089;-63
2022/03/27 00:37:00;;;;;;;;;;;;;;;16.98;28.02;100453.38;4499738;31;34341;-63
2022/03/27 00:39:27;;;;;;;;;;;;;;;17.09;28.07;100454.25;4492090;31;33938;-63
2022/03/27 00:41:55;;;;;;;;;;;;;;;17.09;28.01;100460.50;4487808;31;35402;-63
2022/03/27 00:44:24;;;;;;;;;;;;;;;17.07;28.07;100458.94;4487667;31;33746;-63
2022/03/27 00:46:52;;;;;;;;;;;;;;;17.11;28.02;100463.06;4498613;31;34263;-64
2022/03/27 00:49:20;;;;;;;;;;;;;;;17.19;27.87;100466.78;4489523;31;33732;-63
2022/03/27 00:51:47;;;;;;;;;;;;;;;16.87;28.30;100464.28;4486971;31;34415;-63
2022/03/27 00:54:15;;;;;;;;;;;;;;;16.86;28.25;100467.16;4485480;31;34711;-63
2022/03/27 00:56:43;;;;;;;;;;;;;;;16.78;28.39;100462.41;4497738;31;34559;-62
2022/03/27 00:59:11;;;;;;;;;;;;;;;16.66;28.56;100458.06;4490573;31;34241;-63
2022/03/27 01:01:39;;;;;;;;;;;;;;;16.69;28.47;100464.06;4491324;31;34229;-63
2022/03/27 01:04:07;;;;;;;;;;;;;;;16.61;28.69;100465.75;4493850;31;33587;-64
2022/03/27 01:06:41;;;;;;;;;;;;;;;16.63;28.55;100470.03;4489500;31;34715;-63
2022/03/27 01:12:06;;;;;;;;;;;;;;;16.10;29.29;100470.16;4489709;31;34667;-63
2022/03/27 01:14:34;;;;;;;;;;;;;;;15.76;29.93;100464.09;4492576;31;33651;-64
2022/03/27 01:17:02;;;;;;;;;;;;;;;16.17;29.30;100465.94;4493528;31;34205;-62
2022/03/27 01:19:29;;;;;;;;;;;;;;;16.11;29.27;100471.00;4493490;31;33904;-63
2022/03/27 01:21:58;;;;;;;;;;;;;;;16.29;29.09;100466.72;4497221;31;34079;-62
2022/03/27 01:24:25;;;;;;;;;;;;;;;16.51;28.69;100476.50;4488149;31;34581;-63
2022/03/27 01:26:53;;;;;;;;;;;;;;;16.60;28.70;100472.16;4494566;31;35401;-63
2022/03/27 01:29:21;;;;;;;;;;;;;;;16.56;28.73;100479.62;4487220;31;34259;-62
2022/03/27 01:31:51;;;;;;;;;;;;;;;16.58;28.58;100479.53;4492604;31;34293;-63
2022/03/27 01:34:19;;;;;;;;;;;;;;;16.71;28.29;100485.53;4485453;31;33809;-62
2022/03/27 01:36:47;;;;;;;;;;;;;;;16.52;28.84;100476.34;4485520;31;35236;-63
2022/03/27 01:39:16;;;;;;;;;;;;;;;16.20;29.21;100473.78;4485450;31;32726;-63
2022/03/27 01:41:44;;;;;;;;;;;;;;;15.95;29.73;100469.62;4486044;31;34561;-63
2022/03/27 01:44:16;;;;;;;;;;;;;;;15.98;29.58;100472.06;4490596;31;33692;-63
2022/03/27 01:46:43;;;;;;;;;;;;;;;16.19;29.25;100479.31;4489384;31;33917;-63
2022/03/27 01:49:12;;;;;;;;;;;;;;;16.40;28.73;100482.81;4485773;31;34404;-63
2022/03/27 01:51:40;;;;;;;;;;;;;;;16.50;28.66;100485.56;4486790;31;35265;-63
2022/03/27 01:54:08;;;;;;;;;;;;;;;16.52;28.62;100489.88;4487787;31;33547;-63
2022/03/27 01:56:38;;;;;;;;;;;;;;;16.27;29.53;100496.53;4491265;31;34151;-63
2022/03/27 01:59:06;;;;;;;;;;;;;;;16.29;28.99;100496.44;4489611;31;35190;-63
2022/03/27 02:01:34;;;;;;;;;;;;;;;16.05;29.43;100494.00;4476492;31;34424;-63
2022/03/27 02:04:03;;;;;;;;;;;;;;;15.90;29.79;100496.19;4487413;31;33714;-64
2022/03/27 02:06:32;;;;;;;;;;;;;;;15.58;30.41;100498.88;4485682;31;35265;-63
2022/03/27 02:09:00;;;;;;;;;;;;;;;16.10;29.37;100494.47;4490046;31;33101;-65
2022/03/27 02:11:27;;;;;;;;;;;;;;;16.23;29.03;100491.56;4492935;31;35265;-63
2022/03/27 02:13:56;;;;;;;;;;;;;;;15.92;29.56;100488.81;4488616;31;33444;-63
2022/03/27 02:16:23;;;;;;;;;;;;;;;16.05;29.54;100488.59;4487058;31;34267;-62
2022/03/27 02:18:51;;;;;;;;;;;;;;;16.13;29.21;100488.81;4496130;31;34209;-63
2022/03/27 02:21:19;;;;;;;;;;;;;;;16.18;29.19;100489.28;4496311;31;35274;-63
2022/03/27 02:23:47;;;;;;;;;;;;;;;16.13;29.42;100493.34;4490507;31;34955;-64
2022/03/27 02:26:15;;;;;;;;;;;;;;;15.94;30.10;100497.63;4496093;31;34165;-63
2022/03/27 02:28:42;;;;;;;;;;;;;;;15.91;29.80;100503.28;4490885;31;34080;-63
2022/03/27 02:31:10;;;;;;;;;;;;;;;15.90;29.89;100496.19;4488651;31;35268;-63
2022/03/27 02:33:38;;;;;;;;;;;;;;;15.75;30.18;100501.03;4486201;31;33429;-64
2022/03/27 02:36:08;;;;;;;;;;;;;;;15.81;30.15;100507.75;4489558;31;35731;-64
2022/03/27 02:38:36;;;;;;;;;;;;;;;15.79;30.26;100509.72;4484399;31;32609;-64
2022/03/27 02:41:04;;;;;;;;;;;;;;;15.64;30.57;100508.28;4483061;31;33218;-63
2022/03/27 02:43:33;;;;;;;;;;;;;;;15.80;30.29;100511.44;4484309;31;32275;-64
2022/03/27 02:46:03;;;;;;;;;;;;;;;16.06;29.84;100517.31;4487526;31;34910;-63
2022/03/27 02:48:32;;;;;;;;;;;;;;;16.01;30.05;100511.44;4483446;31;33731;-63
2022/03/27 02:51:02;;;;;;;;;;;;;;;16.02;30.05;100522.13;4482190;31;35149;-62
2022/03/27 02:53:31;;;;;;;;;;;;;;;16.21;29.82;100513.31;4483179;31;33658;-65
2022/03/27 02:55:59;;;;;;;;;;;;;;;16.00;30.12;100525.94;4481867;31;35114;-63
2022/03/27 02:58:29;;;;;;;;;;;;;;;15.87;30.80;100520.72;4487920;31;34354;-62
2022/03/27 03:00:58;;;;;;;;;;;;;;;15.84;30.53;100516.44;4483861;31;35367;-65
2022/03/27 03:03:28;;;;;;;;;;;;;;;15.90;30.42;100515.06;4479395;31;32647;-63
2022/03/27 03:05:57;;;;;;;;;;;;;;;15.96;30.26;100509.16;4482321;31;34182;-63
2022/03/27 03:08:27;;;;;;;;;;;;;;;15.89;30.50;100512.47;4490410;31;34024;-65
2022/03/27 03:10:56;;;;;;;;;;;;;;;15.96;30.29;100519.97;4486361;31;33067;-65
2022/03/27 03:13:27;;;;;;;;;;;;;;;15.95;30.30;100514.66;4483849;31;33545;-62
2022/03/27 03:15:56;;;;;;;;;;;;;;;15.87;30.57;100526.13;4486426;31;33907;-64
2022/03/27 03:18:26;;;;;;;;;;;;;;;15.84;30.73;100529.09;4483521;31;33989;-63
2022/03/27 03:20:55;;;;;;;;;;;;;;;15.94;30.56;100530.00;4485991;31;34267;-62
2022/03/27 03:23:24;;;;;;;;;;;;;;;15.69;31.47;100530.38;4484636;31;33469;-63
2022/03/27 03:25:53;;;;;;;;;;;;;;;15.92;30.55;100547.31;4492846;31;33801;-62
2022/03/27 03:28:37;;;;;;;;;;;;;;;15.82;30.83;100542.69;4484883;31;34472;-64
2022/03/27 03:31:09;;;;;;;;;;;;;;;15.60;31.24;100549.03;4486035;31;33577;-63
2022/03/27 03:33:37;;;;;;;;;;;;;;;15.57;31.11;100551.97;4478321;31;32407;-63
2022/03/27 03:36:07;;;;;;;;;;;;;;;15.42;31.62;100553.22;4473991;31;32516;-65
2022/03/27 03:38:35;;;;;;;;;;;;;;;15.36;31.53;100559.97;4474203;31;32995;-63
2022/03/27 03:41:05;;;;;;;;;;;;;;;15.88;30.75;100562.94;4485257;31;35160;-62
2022/03/27 03:43:33;;;;;;;;;;;;;;;15.76;31.24;100563.94;4485045;31;34370;-62
2022/03/27 03:46:02;;;;;;;;;;;;;;;15.96;30.66;100556.91;4482124;31;34160;-63
2022/03/27 03:48:31;;;;;;;;;;;;;;;16.07;30.31;100560.38;4479621;31;34461;-63
2022/03/27 03:51:00;;;;;;;;;;;;;;;15.91;30.88;100567.22;4482829;31;35291;-63
2022/03/27 03:53:29;;;;;;;;;;;;;;;15.69;31.33;100565.44;4485959;31;32144;-63
2022/03/27 03:55:57;;;;;;;;;;;;;;;16.13;30.29;100566.25;4484732;31;33862;-62
2022/03/27 03:58:25;;;;;;;;;;;;;;;16.16;30.14;100574.97;4479748;31;33902;-62
2022/03/27 04:00:53;;;;;;;;;;;;;;;16.11;30.20;100579.03;4484333;31;34610;-62
2022/03/27 04:03:21;;;;;;;;;;;;;;;16.15;30.44;100575.97;4483115;31;33061;-63
2022/03/27 04:05:49;;;;;;;;;;;;;;;16.18;30.10;100580.22;4481341;31;33802;-64
2022/03/27 04:08:18;;;;;;;;;;;;;;;16.02;30.54;100583.38;4481616;31;35208;-64
2022/03/27 04:10:47;;;;;;;;;;;;;;;15.77;31.17;100584.56;4482137;31;33439;-64
2022/03/27 04:13:15;;;;;;;;;;;;;;;15.47;31.58;100591.47;4484461;31;33783;-65
2022/03/27 04:15:49;;;;;;;;;;;;;;;15.58;31.51;100590.59;4488112;31;34256;-65
2022/03/27 04:18:27;;;;;;;;;;;;;;;15.30;32.21;100592.84;4485939;31;33096;-64
2022/03/27 04:20:56;;;;;;;;;;;;;;;15.26;32.48;100601.31;4487902;31;34158;-64
2022/03/27 04:23:24;;;;;;;;;;;;;;;15.19;32.85;100605.50;4489697;31;33261;-64
2022/03/27 04:25:52;;;;;;;;;;;;;;;14.98;33.57;100614.31;4486791;31;34087;-64
2022/03/27 04:28:22;;;;;;;;;;;;;;;14.84;34.04;100615.41;4482220;31;34409;-64
2022/03/27 04:30:52;;;;;;;;;;;;;;;15.22;33.12;100618.75;4479139;31;33015;-64
2022/03/27 04:33:24;;;;;;;;;;;;;;;15.12;33.12;100621.31;4489952;31;33361;-64
2022/03/27 04:35:54;;;;;;;;;;;;;;;15.34;32.58;100628.50;4490606;31;34496;-63
2022/03/27 04:38:26;;;;;;;;;;;;;;;15.22;32.83;100634.91;4490535;31;31931;-64
2022/03/27 04:40:56;;;;;;;;;;;;;;;15.10;33.09;100644.84;4489812;31;33256;-64
2022/03/27 04:43:28;;;;;;;;;;;;;;;15.39;32.50;100653.28;4485801;31;32398;-64
2022/03/27 04:46:08;;;;;;;;;;;;;;;15.24;32.98;100659.91;4491457;31;35389;-63
2022/03/27 04:48:52;;;;;;;;;;;;;;;15.24;33.33;100662.59;4486930;31;32817;-64
2022/03/27 04:51:29;;;;;;;;;;;;;;;15.30;32.83;100667.50;4494183;31;34373;-64
2022/03/27 04:54:09;;;;;;;;;;;;;;;15.32;33.00;100663.72;4491796;31;33719;-64
2022/03/27 04:56:45;;;;;;;;;;;;;;;15.37;32.88;100666.03;4486539;31;33011;-66
2022/03/27 04:59:27;;;;;;;;;;;;;;;15.37;33.07;100669.59;4493349;31;34368;-64
2022/03/27 05:02:05;;;;;;;;;;;;;;;15.08;34.01;100680.00;4482582;31;33265;-64
2022/03/27 05:04:42;;;;;;;;;;;;;;;15.39;33.16;100680.25;4481919;31;32096;-64
2022/03/27 05:07:14;;;;;;;;;;;;;;;15.43;33.44;100687.13;4492494;31;33099;-65
2022/03/27 05:09:44;;;;;;;;;;;;;;;15.50;33.35;100692.88;4483616;31;33093;-64
2022/03/27 05:12:17;;;;;;;;;;;;;;;15.77;32.82;100687.16;4486563;31;34450;-65
2022/03/27 05:14:49;;;;;;;;;;;;;;;15.84;32.75;100688.34;4484901;31;33433;-67
2022/03/27 05:17:20;;;;;;;;;;;;;;;15.71;32.97;100693.03;4483386;31;34012;-66
2022/03/27 05:19:51;;;;;;;;;;;;;;;15.70;33.04;100688.63;4482144;31;35316;-66
2022/03/27 05:22:23;;;;;;;;;;;;;;;15.23;34.23;100699.50;4488660;31;34034;-66
2022/03/27 05:24:52;;;;;;;;;;;;;;;15.59;33.55;100694.84;4487815;31;33447;-65
2022/03/27 05:27:24;;;;;;;;;;;;;;;15.86;32.92;100701.72;4493780;31;34267;-66
2022/03/27 05:29:59;;;;;;;;;;;;;;;15.89;33.10;100704.16;4485438;31;33913;-66
2022/03/27 05:32:34;;;;;;;;;;;;;;;15.75;33.33;100700.75;4487261;31;32976;-64
2022/03/27 05:35:10;;;;;;;;;;;;;;;15.83;33.31;100706.41;4483955;31;32197;-65
2022/03/27 05:37:49;;;;;;;;;;;;;;;14.85;35.00;100718.69;4486315;31;33018;-65
2022/03/27 05:40:31;;;;;;;;;;;;;;;14.48;35.32;100734.94;4482849;31;32919;-65
2022/03/27 05:43:11;;;;;;;;;;;;;;;14.65;35.38;100728.28;4489854;31;34202;-66
2022/03/27 05:45:43;;;;;;;;;;;;;;;13.26;36.99;100742.03;4484181;31;33524;-65
2022/03/27 05:48:15;;;;;;;;;;;;;;;14.47;35.46;100732.34;4481960;31;33669;-64
2022/03/27 05:50:48;;;;;;;;;;;;;;;14.44;34.99;100734.31;4489194;31;32962;-65
2022/03/27 05:53:22;;;;;;;;;;;;;;;14.15;35.57;100743.69;4488564;31;33362;-65
2022/03/27 05:55:57;;;;;;;;;;;;;;;13.23;37.74;100742.22;4485676;31;32382;-65
2022/03/27 05:58:31;;;;;;;;;;;;;;;13.12;38.04;100755.53;4487803;31;34441;-64
2022/03/27 06:01:04;;;;;;;;;;;;;;;13.44;37.98;100753.31;4484962;31;34156;-65
2022/03/27 06:03:36;;;;;;;;;;;;;;;14.39;36.16;100760.72;4483830;31;33193;-65
2022/03/27 06:06:05;;;;;;;;;;;;;;;14.84;35.26;100763.66;4480894;31;33698;-65
2022/03/27 06:08:36;;;;;;;;;;;;;;;13.91;37.23;100774.12;4485087;31;34262;-65
2022/03/27 06:11:05;;;;;;;;;;;;;;;13.17;38.72;100780.28;4481748;31;33174;-67
2022/03/27 06:13:38;;;;;;;;;;;;;;;13.97;37.55;100775.53;4484846;31;35055;-64
2022/03/27 06:16:10;;;;;;;;;;;;;;;14.20;37.07;100785.47;4488318;31;33587;-64
2022/03/27 06:18:43;;;;;;;;;;;;;;;14.68;36.33;100790.03;4487041;31;34780;-67
2022/03/27 06:21:18;;;;;;;;;;;;;;;14.91;35.86;100791.84;4488143;31;34642;-65
2022/03/27 06:23:54;;;;;;;;;;;;;;;15.47;35.11;100801.03;4494334;31;34279;-65
2022/03/27 06:26:25;;;;;;;;;;;;;;;13.79;37.68;100792.97;4494436;31;33833;-65
2022/03/27 06:28:59;;;;;;;;;;;;;;;14.77;36.29;100801.97;4484761;31;34514;-64
2022/03/27 06:31:31;;;;;;;;;;;;;;;14.94;35.97;100809.63;4483337;31;35502;-65
2022/03/27 06:34:04;;;;;;;;;;;;;;;15.51;34.91;100799.84;4484833;31;34240;-67
2022/03/27 06:36:34;;;;;;;;;;;;;;;16.28;33.52;100805.38;4486599;31;32615;-64
2022/03/27 06:39:09;;;;;;;;;;;;;;;16.57;32.75;100794.00;4485834;31;35177;-65
2022/03/27 06:41:41;;;;;;;;;;;;;;;16.82;32.40;100798.22;4488715;31;35053;-65
2022/03/27 06:44:14;;;;;;;;;;;;;;;17.43;31.79;100806.50;4486177;31;34240;-67
2022/03/27 06:46:50;;;;;;;;;;;;;;;17.71;30.79;100799.53;4486626;31;32856;-66
2022/03/27 06:49:22;;;;;;;;;;;;;;;17.99;30.50;100806.13;4486729;31;32621;-66
2022/03/27 06:52:00;;;;;;;;;;;;;;;18.19;29.80;100807.03;4487099;31;35248;-65
2022/03/27 06:54:35;;;;;;;;;;;;;;;17.26;31.82;100805.25;4483205;31;34213;-66
2022/03/27 06:57:06;;;;;;;;;;;;;;;16.44;33.14;100808.53;4490149;31;32352;-67
2022/03/27 07:05:22;;;;;;;;;;;;;;;14.91;36.18;100824.19;4486568;31;34258;-65
2022/03/27 07:08:03;;;;;;;;;;;;;;;16.01;34.59;100819.25;4477890;31;32615;-66
2022/03/27 07:10:37;;;;;;;;;;;;;;;15.84;34.94;100818.78;4488264;31;35879;-64
2022/03/27 07:13:11;;;;;;;;;;;;;;;15.61;35.37;100825.12;4487720;31;33868;-65
2022/03/27 07:15:41;;;;;;;;;;;;;;;16.34;34.31;100822.91;4490360;31;34211;-64
2022/03/27 07:18:16;;;;;;;;;;;;;;;16.56;33.74;100819.31;4491465;31;33593;-64
2022/03/27 07:20:48;;;;;;;;;;;;;;;16.13;34.42;100817.44;4484216;31;33134;-64
2022/03/27 07:23:17;;;;;;;;;;;;;;;16.65;33.96;100818.53;4491075;31;34597;-64
2022/03/27 07:25:50;;;;;;;;;;;;;;;17.51;32.41;100822.09;4481986;31;33230;-64
2022/03/27 07:28:19;;;;;;;;;;;;;;;16.49;33.63;100817.09;4481890;31;32415;-64
2022/03/27 07:30:50;;;;;;;;;;;;;;;16.69;33.69;100825.41;4485890;31;35800;-64
2022/03/27 07:33:21;;;;;;;;;;;;;;;16.98;33.30;100825.69;4483935;31;34296;-65
2022/03/27 07:35:55;;;;;;;;;;;;;;;17.01;33.02;100828.12;4489997;31;35172;-65
2022/03/27 07:38:25;;;;;;;;;;;;;;;16.64;33.72;100836.59;4491580;31;33037;-65
2022/03/27 07:41:01;;;;;;;;;;;;;;;17.35;32.30;100834.25;4483936;31;33980;-64
2022/03/27 07:43:32;;;;;;;;;;;;;;;17.88;31.38;100834.16;4485917;31;32822;-64
2022/03/27 07:46:07;;;;;;;;;;;;;;;16.51;33.76;100839.47;4484601;31;34582;-65
2022/03/27 07:48:39;;;;;;;;;;;;;;;16.46;33.95;100840.81;4486850;31;32449;-65
2022/03/27 07:51:10;;;;;;;;;;;;;;;17.10;33.01;100848.16;4487982;31;33278;-64
2022/03/27 07:53:41;;;;;;;;;;;;;;;18.42;31.00;100842.03;4487849;31;34466;-64
2022/03/27 07:56:10;;;;;;;;;;;;;;;20.74;27.51;100839.91;4498042;31;34487;-64
2022/03/27 07:58:46;;;;;;;;;;;;;;;20.87;26.68;100844.00;4490312;31;33493;-64
2022/03/27 08:01:18;;;;;;;;;;;;;;;23.10;24.20;100836.91;4482594;31;34460;-65
2022/03/27 08:03:56;;;;;;;;;;;;;;;24.09;22.55;100839.38;4483634;31;33391;-65
2022/03/27 08:06:26;;;;;;;;;;;;;;;24.21;22.49;100842.59;4488197;31;33220;-68
2022/03/27 08:09:02;;;;;;;;;;;;;;;24.21;22.43;100848.06;4486048;31;33513;-65
2022/03/27 08:11:36;;;;;;;;;;;;;;;24.17;22.64;100841.22;4485484;31;33090;-65
2022/03/27 08:14:13;;;;;;;;;;;;;;;24.63;22.00;100833.19;4486643;31;34509;-65
2022/03/27 08:16:51;;;;;;;;;;;;;;;24.22;22.66;100830.59;4486170;31;34100;-68
2022/03/27 08:19:29;;;;;;;;;;;;;;;23.16;23.81;100836.25;4485695;31;32021;-67
2022/03/27 08:22:01;;;;;;;;;;;;;;;22.94;24.15;100833.16;4484637;31;32189;-64
2022/03/27 08:24:34;;;;;;;;;;;;;;;20.31;27.59;100831.41;4482385;31;34128;-65
2022/03/27 08:27:08;;;;;;;;;;;;;;;21.14;26.49;100832.16;4489615;31;34286;-65
2022/03/27 08:29:50;;;;;;;;;;;;;;;21.72;25.94;100828.03;4485337;31;34346;-67
2022/03/27 08:32:25;;;;;;;;;;;;;;;21.69;26.22;100814.72;4485514;31;35342;-64
2022/03/27 08:34:59;;;;;;;;;;;;;;;21.38;26.71;100828.81;4483837;31;33368;-65
2022/03/27 08:37:28;;;;;;;;;;;;;;;20.58;27.72;100821.59;4486067;31;35057;-64
2022/03/27 08:40:06;;;;;;;;;;;;;;;20.38;28.09;100837.94;4484882;31;34105;-66
2022/03/27 08:42:42;;;;;;;;;;;;;;;19.41;29.80;100832.00;4473442;31;32944;-66
2022/03/27 08:45:15;;;;;;;;;;;;;;;20.42;28.85;100828.50;4476334;31;33249;-64
2022/03/27 08:47:47;;;;;;;;;;;;;;;18.09;32.01;100830.53;4493771;31;33632;-64
2022/03/27 08:50:34;;;;;;;;;;;;;;;18.43;31.69;100839.22;4497435;31;32766;-65
2022/03/27 08:53:12;;;;;;;;;;;;;;;17.82;32.56;100840.13;4483895;31;33007;-63
2022/03/27 08:55:46;;;;;;;;;;;;;;;18.55;31.90;100838.06;4497629;31;33885;-63
2022/03/27 08:58:15;;;;;;;;;;;;;;;18.10;32.17;100840.37;4475996;31;33157;-63
2022/03/27 09:00:49;;;;;;;;;;;;;;;17.30;33.55;100843.72;4493687;31;32360;-63
2022/03/27 09:03:25;;;;;;;;;;;;;;;17.88;32.85;100846.81;4493404;31;35733;-62
2022/03/27 09:05:59;;;;;;;;;;;;;;;16.87;34.57;100842.81;4486737;31;34235;-63
2022/03/27 09:08:37;;;;;;;;;;;;;;;16.50;35.37;100845.88;4485676;31;34671;-62
2022/03/27 09:11:20;;;;;;;;;;;;;;;16.81;34.29;100845.19;4483813;31;33426;-65
2022/03/27 09:13:52;;;;;;;;;;;;;;;16.96;34.51;100843.91;4491040;31;33674;-62
2022/03/27 09:16:27;;;;;;;;;;;;;;;17.25;34.04;100846.00;4487436;31;34370;-63
2022/03/27 09:19:00;;;;;;;;;;;;;;;17.36;33.78;100845.91;4494590;31;32931;-62
2022/03/27 09:21:34;;;;;;;;;;;;;;;17.50;33.79;100844.75;4483617;31;34104;-63
2022/03/27 09:24:08;;;;;;;;;;;;;;;17.72;32.87;100851.84;4474195;31;34736;-66
2022/03/27 09:27:00;;;;;;;;;;;;;;;18.19;32.23;100850.37;4485537;31;33184;-63
2022/03/27 09:29:55;;;;;;;;;;;;;;;17.98;32.31;100849.56;4491635;31;35618;-65
2022/03/27 09:32:26;;;;;;;;;;;;;;;17.08;33.97;100848.28;4490387;31;34099;-62
2022/03/27 09:35:00;;;;;;;;;;;;;;;17.52;33.37;100840.91;4488432;31;34255;-65
2022/03/27 09:37:38;;;;;;;;;;;;;;;18.90;31.53;100834.00;4489198;31;33186;-63
2022/03/27 09:40:12;;;;;;;;;;;;;;;18.10;32.50;100843.06;4491669;31;33152;-63
2022/03/27 09:42:43;;;;;;;;;;;;;;;17.85;32.37;100849.84;4489107;31;32525;-63
2022/03/27 09:45:19;;;;;;;;;;;;;;;16.65;34.50;100850.97;4485629;31;33150;-66
2022/03/27 09:47:56;;;;;;;;;;;;;;;17.93;32.53;100836.47;4486234;31;33188;-63
2022/03/27 09:50:36;;;;;;;;;;;;;;;17.65;32.92;100846.09;4487585;31;34313;-63
2022/03/27 09:53:28;;;;;;;;;;;;;;;18.23;31.99;100835.56;4493255;31;33348;-63
2022/03/27 09:56:07;;;;;;;;;;;;;;;18.42;31.53;100839.34;4494353;31;33093;-63
2022/03/27 09:58:45;;;;;;;;;;;;;;;17.31;33.39;100840.06;4484556;31;33537;-63
2022/03/27 10:01:24;;;;;;;;;;;;;;;18.36;31.82;100840.75;4484693;31;34902;-63
2022/03/27 10:04:08;;;;;;;;;;;;;;;19.11;30.72;100833.03;4498004;31;33722;-64
2022/03/27 10:06:42;;;;;;;;;;;;;;;18.87;30.81;100839.72;4488321;31;34641;-64
2022/03/27 10:09:19;;;;;;;;;;;;;;;18.78;31.09;100837.84;4495136;31;34666;-66
2022/03/27 10:11:49;;;;;;;;;;;;;;;18.48;31.50;100831.50;4491307;31;33305;-64
2022/03/27 10:14:28;;;;;;;;;;;;;;;19.12;30.43;100835.59;4482224;31;32474;-65
2022/03/27 10:17:01;;;;;;;;;;;;;;;19.39;29.59;100828.56;4478190;32;33135;-63
2022/03/27 10:19:39;;;;;;;;;;;;;;;19.20;29.72;100834.91;4469298;31;34221;-63
2022/03/27 10:22:16;;;;;;;;;;;;;;;20.11;29.07;100832.53;4486619;31;34174;-63
2022/03/27 10:24:52;;;;;;;;;;;;;;;20.34;27.46;100830.25;4480770;31;34205;-63
2022/03/27 10:27:27;;;;;;;;;;;;;;;20.05;27.68;100825.81;4483944;31;33268;-63
2022/03/27 10:30:10;;;;;;;;;;;;;;;20.43;27.52;100823.94;4477046;31;33350;-63
2022/03/27 10:32:50;;;;;;;;;;;;;;;21.20;26.97;100827.09;4484802;31;34180;-62
2022/03/27 10:35:26;;;;;;;;;;;;;;;20.54;27.45;100831.03;4490280;31;33327;-65
2022/03/27 10:38:06;;;;;;;;;;;;;;;20.83;26.83;100822.66;4486810;31;32820;-63
2022/03/27 10:40:49;;;;;;;;;;;;;;;19.94;27.77;100829.59;4484678;31;34474;-66
2022/03/27 10:43:32;;;;;;;;;;;;;;;20.99;26.37;100821.97;4492324;31;33349;-63
2022/03/27 10:46:19;;;;;;;;;;;;;;;20.85;26.46;100815.22;4489793;31;31454;-63
2022/03/27 10:48:52;;;;;;;;;;;;;;;20.52;27.33;100820.31;4493139;31;33749;-64
2022/03/27 10:51:28;;;;;;;;;;;;;;;20.93;26.45;100818.03;4496025;31;33463;-63
2022/03/27 10:54:03;;;;;;;;;;;;;;;19.74;28.18;100831.53;4494811;31;34123;-65
2022/03/27 10:56:43;;;;;;;;;;;;;;;19.82;27.91;100824.50;4491024;31;33485;-62
2022/03/27 10:59:20;;;;;;;;;;;;;;;18.68;29.36;100826.97;4485867;31;34507;-64
2022/03/27 11:01:52;;;;;;;;;;;;;;;19.81;27.83;100817.34;4488875;31;33020;-63
2022/03/27 11:04:36;;;;;;;;;;;;;;;20.93;26.89;100815.31;4486136;31;35081;-63
2022/03/27 11:07:16;;;;;;;;;;;;;;;21.64;25.59;100803.47;4491248;31;32439;-63
2022/03/27 11:09:47;;;;;;;;;;;;;;;21.57;24.88;100802.38;4488994;31;35263;-63
2022/03/27 11:12:25;;;;;;;;;;;;;;;21.77;24.84;100803.03;4494853;31;34285;-62
2022/03/27 11:15:02;;;;;;;;;;;;;;;21.98;24.41;100806.19;4493409;31;34664;-63
2022/03/27 11:17:32;;;;;;;;;;;;;;;21.98;24.59;100794.44;4487833;31;33652;-63
2022/03/27 11:20:11;;;;;;;;;;;;;;;22.31;24.08;100803.63;4488511;31;33278;-63
2022/03/27 11:22:45;;;;;;;;;;;;;;;22.77;23.53;100795.91;4483522;31;34101;-65
2022/03/27 11:25:23;;;;;;;;;;;;;;;22.29;24.62;100795.63;4491957;31;35417;-65
2022/03/27 11:27:56;;;;;;;;;;;;;;;22.48;24.55;100802.66;4484257;31;34876;-64
2022/03/27 11:30:29;;;;;;;;;;;;;;;22.61;23.82;100804.06;4483887;31;35384;-63
2022/03/27 11:33:11;;;;;;;;;;;;;;;22.73;23.28;100789.94;4494631;31;34101;-63
2022/03/27 11:36:04;;;;;;;;;;;;;;;22.26;24.10;100782.31;4483181;31;35211;-63
2022/03/27 11:38:37;;;;;;;;;;;;;;;22.65;23.91;100781.72;4492012;31;32927;-62
2022/03/27 11:41:22;;;;;;;;;;;;;;;22.31;24.02;100781.81;4494472;31;32165;-63
2022/03/27 11:43:57;;;;;;;;;;;;;;;22.52;24.11;100775.91;4496659;31;34391;-62
2022/03/27 11:46:27;;;;;;;;;;;;;;;21.51;25.24;100776.66;4479166;31;35484;-63
2022/03/27 11:48:58;;;;;;;;;;;;;;;21.44;24.94;100766.53;4479795;31;33685;-63
2022/03/27 11:51:27;;;;;;;;;;;;;;;20.69;25.96;100773.22;4493339;31;35431;-63
2022/03/27 11:54:02;;;;;;;;;;;;;;;20.81;25.86;100770.28;4486016;31;33595;-64
2022/03/27 11:56:31;;;;;;;;;;;;;;;20.02;26.74;100771.78;4492699;31;34503;-63
2022/03/27 11:59:07;;;;;;;;;;;;;;;20.76;26.29;100756.28;4481025;31;32409;-66
2022/03/27 12:01:39;;;;;;;;;;;;;;;19.77;26.86;100766.06;4470974;32;34315;-64
2022/03/27 12:04:10;;;;;;;;;;;;;;;20.31;26.35;100749.88;4485680;31;34315;-65
2022/03/27 12:06:42;;;;;;;;;;;;;;;21.47;25.24;100763.50;4489203;31;35512;-64
2022/03/27 12:09:22;;;;;;;;;;;;;;;20.94;25.30;100754.41;4468406;31;33564;-63
2022/03/27 12:12:10;;;;;;;;;;;;;;;19.67;27.09;100751.63;4489686;31;34370;-63
2022/03/27 12:15:02;;;;;;;;;;;;;;;20.92;25.52;100748.28;4483224;31;35599;-65
2022/03/27 12:17:35;;;;;;;;;;;;;;;21.46;25.59;100746.31;4481451;31;34109;-64
2022/03/27 12:20:08;;;;;;;;;;;;;;;21.97;24.96;100744.53;4489109;31;33451;-64
2022/03/27 12:22:43;;;;;;;;;;;;;;;22.02;24.41;100744.91;4488686;31;34111;-65
2022/03/27 12:25:21;;;;;;;;;;;;;;;21.42;25.33;100747.66;4483357;31;34273;-65
2022/03/27 12:30:49;;;;;;;;;;;;;;;20.43;26.27;100739.63;4496720;31;34305;-64
2022/03/27 12:33:19;;;;;;;;;;;;;;;20.95;25.62;100728.91;4488901;31;32908;-64
2022/03/27 12:36:01;;;;;;;;;;;;;;;21.94;24.31;100744.00;4469955;32;33177;-64
2022/03/27 12:38:31;;;;;;;;;;;;;;;20.84;24.81;100738.19;4482731;31;34738;-64
2022/03/27 12:41:00;;;;;;;;;;;;;;;21.03;25.14;100728.97;4487525;31;34166;-64
2022/03/27 12:43:29;;;;;;;;;;;;;;;21.30;24.91;100724.41;4487331;31;34269;-64
2022/03/27 12:45:59;;;;;;;;;;;;;;;22.09;24.04;100724.13;4483372;31;35371;-64
2022/03/27 12:48:28;;;;;;;;;;;;;;;21.91;24.01;100727.97;4482058;31;32632;-64
2022/03/27 12:51:00;;;;;;;;;;;;;;;21.80;24.46;100727.25;4486303;31;33552;-64
2022/03/27 12:53:30;;;;;;;;;;;;;;;21.32;24.81;100727.81;4484129;31;33992;-67
2022/03/27 12:56:03;;;;;;;;;;;;;;;20.84;25.13;100713.69;4484568;31;33060;-64
2022/03/27 12:58:37;;;;;;;;;;;;;;;21.23;25.30;100702.41;4481381;31;33244;-64
2022/03/27 13:01:08;;;;;;;;;;;;;;;20.57;26.06;100716.50;4482222;31;33695;-64
2022/03/27 13:03:37;;;;;;;;;;;;;;;19.39;27.49;100704.56;4486706;31;34898;-63
2022/03/27 13:06:09;;;;;;;;;;;;;;;19.31;27.62;100707.16;4492945;31;34089;-64
2022/03/27 13:08:39;;;;;;;;;;;;;;;19.12;27.77;100701.78;4483840;31;34357;-64
2022/03/27 13:11:12;;;;;;;;;;;;;;;19.21;27.73;100700.91;4483293;31;33648;-64
2022/03/27 13:13:45;;;;;;;;;;;;;;;20.05;26.79;100697.25;4488188;31;34383;-66